sensor_id;sensor_type;location;lat;lon;timestamp;temperature;humidity
79469;DHT22;68936;52.526;13.326;2023-04-01T00:01:44;18.00;59.40
79469;DHT22;68936;52.526;13.326;2023-04-01T00:04:12;18.00;59.10
79469;DHT22;68936;52.526;13.326;2023-04-01T00:06:38;18.10;59.20
79469;DHT22;68936;52.526;13.326;2023-04-01T00:09:04;18.10;59.00
79469;DHT22;68936;52.526;13.326;2023-04-01T00:11:29;18.10;59.10
79469;DHT22;68936;52.526;13.326;2023-04-01T00:13:58;18.10;59.30
79469;DHT22;68936;52.526;13.326;2023-04-01T00:16:25;18.00;59.50
79469;DHT22;68936;52.526;13.326;2023-04-01T00:18:51;18.10;59.30
79469;DHT22;68936;52.526;13.326;2023-04-01T00:21:18;18.10;59.20
79469;DHT22;68936;52.526;13.326;2023-04-01T00:23:43;18.10;59.10
79469;DHT22;68936;52.526;13.326;2023-04-01T00:26:09;18.10;59.70
79469;DHT22;68936;52.526;13.326;2023-04-01T00:28:35;18.10;59.10
79469;DHT22;68936;52.526;13.326;2023-04-01T00:31:06;18.10;59.30
79469;DHT22;68936;52.526;13.326;2023-04-01T00:33:32;18.00;59.00
79469;DHT22;68936;52.526;13.326;2023-04-01T00:36:16;18.00;59.50
79469;DHT22;68936;52.526;13.326;2023-04-01T00:38:44;18.00;59.60
79469;DHT22;68936;52.526;13.326;2023-04-01T00:41:14;18.00;59.80
79469;DHT22;68936;52.526;13.326;2023-04-01T00:43:45;18.00;59.50
79469;DHT22;68936;52.526;13.326;2023-04-01T00:46:12;18.00;59.60
79469;DHT22;68936;52.526;13.326;2023-04-01T00:48:47;18.00;59.80
79469;DHT22;68936;52.526;13.326;2023-04-01T00:51:25;18.00;59.80
79469;DHT22;68936;52.526;13.326;2023-04-01T00:53:56;18.00;59.90
79469;DHT22;68936;52.526;13.326;2023-04-01T00:56:30;17.90;59.90
79469;DHT22;68936;52.526;13.326;2023-04-01T00:59:02;18.00;60.10
79469;DHT22;68936;52.526;13.326;2023-04-01T01:01:34;18.00;59.60
79469;DHT22;68936;52.526;13.326;2023-04-01T01:04:03;18.00;60.50
79469;DHT22;68936;52.526;13.326;2023-04-01T01:06:46;18.00;60.10
79469;DHT22;68936;52.526;13.326;2023-04-01T01:09:20;18.00;60.00
79469;DHT22;68936;52.526;13.326;2023-04-01T01:11:54;18.00;60.10
79469;DHT22;68936;52.526;13.326;2023-04-01T01:17:20;18.00;60.10
79469;DHT22;68936;52.526;13.326;2023-04-01T01:36:48;18.00;60.80
79469;DHT22;68936;52.526;13.326;2023-04-01T01:39:17;18.00;60.90
79469;DHT22;68936;52.526;13.326;2023-04-01T01:41:45;18.00;60.40
79469;DHT22;68936;52.526;13.326;2023-04-01T01:44:16;18.00;60.80
79469;DHT22;68936;52.526;13.326;2023-04-01T01:46:42;17.90;60.30
79469;DHT22;68936;52.526;13.326;2023-04-01T01:49:10;18.00;61.00
79469;DHT22;68936;52.526;13.326;2023-04-01T01:51:37;18.00;60.80
79469;DHT22;68936;52.526;13.326;2023-04-01T01:54:05;18.00;61.10
79469;DHT22;68936;52.526;13.326;2023-04-01T01:56:34;18.00;61.10
79469;DHT22;68936;52.526;13.326;2023-04-01T01:59:05;18.00;61.30
79469;DHT22;68936;52.526;13.326;2023-04-01T02:01:36;18.00;60.60
79469;DHT22;68936;52.526;13.326;2023-04-01T02:04:05;18.00;60.50
79469;DHT22;68936;52.526;13.326;2023-04-01T02:06:37;18.00;60.70
79469;DHT22;68936;52.526;13.326;2023-04-01T02:09:07;18.00;61.70
79469;DHT22;68936;52.526;13.326;2023-04-01T02:11:47;18.00;61.50
79469;DHT22;68936;52.526;13.326;2023-04-01T02:16:59;18.00;61.20
79469;DHT22;68936;52.526;13.326;2023-04-01T02:19:45;18.00;60.90
79469;DHT22;68936;52.526;13.326;2023-04-01T02:22:18;18.00;60.90
79469;DHT22;68936;52.526;13.326;2023-04-01T02:24:47;17.90;61.00
79469;DHT22;68936;52.526;13.326;2023-04-01T02:27:16;18.00;60.90
79469;DHT22;68936;52.526;13.326;2023-04-01T02:29:42;18.00;61.30
79469;DHT22;68936;52.526;13.326;2023-04-01T02:32:09;17.90;60.70
79469;DHT22;68936;52.526;13.326;2023-04-01T02:34:35;18.00;60.90
79469;DHT22;68936;52.526;13.326;2023-04-01T02:37:04;17.90;61.10
79469;DHT22;68936;52.526;13.326;2023-04-01T02:39:29;18.00;60.40
79469;DHT22;68936;52.526;13.326;2023-04-01T02:41:55;18.00;61.20
79469;DHT22;68936;52.526;13.326;2023-04-01T02:44:21;17.90;61.40
79469;DHT22;68936;52.526;13.326;2023-04-01T02:46:47;17.90;60.70
79469;DHT22;68936;52.526;13.326;2023-04-01T02:49:13;18.00;61.30
79469;DHT22;68936;52.526;13.326;2023-04-01T02:51:38;17.90;60.60
79469;DHT22;68936;52.526;13.326;2023-04-01T02:54:06;18.00;61.00
79469;DHT22;68936;52.526;13.326;2023-04-01T02:56:32;18.00;60.50
79469;DHT22;68936;52.526;13.326;2023-04-01T02:58:57;18.00;61.20
79469;DHT22;68936;52.526;13.326;2023-04-01T03:01:25;18.00;60.90
79469;DHT22;68936;52.526;13.326;2023-04-01T03:03:53;18.00;61.20
79469;DHT22;68936;52.526;13.326;2023-04-01T03:06:19;18.00;60.90
79469;DHT22;68936;52.526;13.326;2023-04-01T03:08:47;18.00;61.80
79469;DHT22;68936;52.526;13.326;2023-04-01T03:11:13;18.00;61.10
79469;DHT22;68936;52.526;13.326;2023-04-01T03:13:39;17.90;60.60
79469;DHT22;68936;52.526;13.326;2023-04-01T03:16:07;17.90;61.60
79469;DHT22;68936;52.526;13.326;2023-04-01T03:18:34;17.90;60.70
79469;DHT22;68936;52.526;13.326;2023-04-01T03:21:17;18.00;61.10
79469;DHT22;68936;52.526;13.326;2023-04-01T03:23:43;18.00;61.40
79469;DHT22;68936;52.526;13.326;2023-04-01T03:26:08;17.90;61.20
79469;DHT22;68936;52.526;13.326;2023-04-01T03:28:34;17.90;60.90
79469;DHT22;68936;52.526;13.326;2023-04-01T03:31:00;17.90;61.80
79469;DHT22;68936;52.526;13.326;2023-04-01T03:33:26;17.90;61.50
79469;DHT22;68936;52.526;13.326;2023-04-01T03:35:52;18.00;61.80
79469;DHT22;68936;52.526;13.326;2023-04-01T03:38:18;17.90;61.00
79469;DHT22;68936;52.526;13.326;2023-04-01T03:40:44;17.90;60.90
79469;DHT22;68936;52.526;13.326;2023-04-01T03:43:10;17.90;61.10
79469;DHT22;68936;52.526;13.326;2023-04-01T03:45:43;17.90;61.20
79469;DHT22;68936;52.526;13.326;2023-04-01T03:48:10;18.00;61.60
79469;DHT22;68936;52.526;13.326;2023-04-01T03:50:36;18.00;61.00
79469;DHT22;68936;52.526;13.326;2023-04-01T03:53:04;18.00;60.80
79469;DHT22;68936;52.526;13.326;2023-04-01T03:55:32;18.00;60.50
79469;DHT22;68936;52.526;13.326;2023-04-01T03:57:58;17.90;61.40
79469;DHT22;68936;52.526;13.326;2023-04-01T04:00:23;17.90;61.20
79469;DHT22;68936;52.526;13.326;2023-04-01T04:02:49;18.00;61.40
79469;DHT22;68936;52.526;13.326;2023-04-01T04:05:15;18.00;62.50
79469;DHT22;68936;52.526;13.326;2023-04-01T04:07:43;18.00;62.00
79469;DHT22;68936;52.526;13.326;2023-04-01T04:10:09;17.90;61.50
79469;DHT22;68936;52.526;13.326;2023-04-01T04:12:37;17.90;61.20
79469;DHT22;68936;52.526;13.326;2023-04-01T04:15:07;17.90;60.80
79469;DHT22;68936;52.526;13.326;2023-04-01T04:17:35;17.90;61.00
79469;DHT22;68936;52.526;13.326;2023-04-01T04:20:01;18.00;61.60
79469;DHT22;68936;52.526;13.326;2023-04-01T04:22:27;17.90;61.40
79469;DHT22;68936;52.526;13.326;2023-04-01T04:24:53;18.00;61.10
79469;DHT22;68936;52.526;13.326;2023-04-01T04:27:19;17.90;61.70
79469;DHT22;68936;52.526;13.326;2023-04-01T04:29:44;17.90;61.40
79469;DHT22;68936;52.526;13.326;2023-04-01T04:32:10;17.90;61.50
79469;DHT22;68936;52.526;13.326;2023-04-01T04:34:40;17.90;62.10
79469;DHT22;68936;52.526;13.326;2023-04-01T04:37:06;17.90;61.70
79469;DHT22;68936;52.526;13.326;2023-04-01T04:39:34;18.00;61.40
79469;DHT22;68936;52.526;13.326;2023-04-01T04:42:01;17.90;60.90
79469;DHT22;68936;52.526;13.326;2023-04-01T04:44:27;17.90;61.50
79469;DHT22;68936;52.526;13.326;2023-04-01T04:46:53;18.00;61.60
79469;DHT22;68936;52.526;13.326;2023-04-01T04:49:18;18.00;61.50
79469;DHT22;68936;52.526;13.326;2023-04-01T04:51:44;17.90;61.30
79469;DHT22;68936;52.526;13.326;2023-04-01T04:54:10;17.90;61.50
79469;DHT22;68936;52.526;13.326;2023-04-01T04:56:38;17.90;60.90
79469;DHT22;68936;52.526;13.326;2023-04-01T04:59:06;17.90;62.20
79469;DHT22;68936;52.526;13.326;2023-04-01T05:01:32;17.90;62.10
79469;DHT22;68936;52.526;13.326;2023-04-01T05:03:59;17.90;61.70
79469;DHT22;68936;52.526;13.326;2023-04-01T05:06:27;17.90;62.10
79469;DHT22;68936;52.526;13.326;2023-04-01T05:08:57;17.90;61.40
79469;DHT22;68936;52.526;13.326;2023-04-01T05:11:23;17.90;61.50
79469;DHT22;68936;52.526;13.326;2023-04-01T05:13:49;17.90;61.10
79469;DHT22;68936;52.526;13.326;2023-04-01T05:16:18;17.90;61.80
79469;DHT22;68936;52.526;13.326;2023-04-01T05:18:44;17.90;62.10
79469;DHT22;68936;52.526;13.326;2023-04-01T05:21:13;17.90;62.50
79469;DHT22;68936;52.526;13.326;2023-04-01T05:23:40;17.90;61.40
79469;DHT22;68936;52.526;13.326;2023-04-01T05:26:07;17.90;62.20
79469;DHT22;68936;52.526;13.326;2023-04-01T05:28:37;17.90;62.70
79469;DHT22;68936;52.526;13.326;2023-04-01T05:31:04;17.90;62.60
79469;DHT22;68936;52.526;13.326;2023-04-01T05:33:31;18.00;61.60
79469;DHT22;68936;52.526;13.326;2023-04-01T05:36:07;18.00;62.20
79469;DHT22;68936;52.526;13.326;2023-04-01T05:38:33;17.90;61.80
79469;DHT22;68936;52.526;13.326;2023-04-01T05:41:04;18.00;62.10
79469;DHT22;68936;52.526;13.326;2023-04-01T05:43:30;18.00;62.20
79469;DHT22;68936;52.526;13.326;2023-04-01T05:45:56;18.00;61.80
79469;DHT22;68936;52.526;13.326;2023-04-01T05:48:24;18.00;62.00
79469;DHT22;68936;52.526;13.326;2023-04-01T05:50:52;18.00;62.50
79469;DHT22;68936;52.526;13.326;2023-04-01T05:53:19;18.00;62.20
79469;DHT22;68936;52.526;13.326;2023-04-01T05:55:45;17.90;62.10
79469;DHT22;68936;52.526;13.326;2023-04-01T05:58:10;18.00;62.80
79469;DHT22;68936;52.526;13.326;2023-04-01T06:00:36;18.00;61.90
79469;DHT22;68936;52.526;13.326;2023-04-01T06:03:02;18.00;62.10
79469;DHT22;68936;52.526;13.326;2023-04-01T06:05:30;18.00;62.40
79469;DHT22;68936;52.526;13.326;2023-04-01T06:08:05;18.00;61.40
79469;DHT22;68936;52.526;13.326;2023-04-01T06:27:40;18.00;62.40
79469;DHT22;68936;52.526;13.326;2023-04-01T06:29:51;18.00;61.90
79469;DHT22;68936;52.526;13.326;2023-04-01T06:32:37;18.00;62.00
79469;DHT22;68936;52.526;13.326;2023-04-01T06:40:45;18.00;62.40
79469;DHT22;68936;52.526;13.326;2023-04-01T06:47:14;18.00;61.70
79469;DHT22;68936;52.526;13.326;2023-04-01T06:52:06;18.00;62.50
79469;DHT22;68936;52.526;13.326;2023-04-01T06:54:38;18.00;62.00
79469;DHT22;68936;52.526;13.326;2023-04-01T06:57:22;18.10;62.20
79469;DHT22;68936;52.526;13.326;2023-04-01T06:59:51;18.10;62.00
79469;DHT22;68936;52.526;13.326;2023-04-01T07:04:47;18.10;62.10
79469;DHT22;68936;52.526;13.326;2023-04-01T07:07:44;18.00;61.70
79469;DHT22;68936;52.526;13.326;2023-04-01T07:10:19;18.00;62.00
79469;DHT22;68936;52.526;13.326;2023-04-01T07:12:53;18.00;62.10
79469;DHT22;68936;52.526;13.326;2023-04-01T07:15:39;18.10;62.50
79469;DHT22;68936;52.526;13.326;2023-04-01T07:18:15;18.10;62.10
79469;DHT22;68936;52.526;13.326;2023-04-01T07:20:42;18.10;61.40
79469;DHT22;68936;52.526;13.326;2023-04-01T07:23:26;18.10;61.20
79469;DHT22;68936;52.526;13.326;2023-04-01T07:26:00;18.10;62.00
79469;DHT22;68936;52.526;13.326;2023-04-01T07:28:32;18.10;62.40
79469;DHT22;68936;52.526;13.326;2023-04-01T07:31:20;18.20;62.00
79469;DHT22;68936;52.526;13.326;2023-04-01T07:39:08;18.20;62.00
79469;DHT22;68936;52.526;13.326;2023-04-01T07:41:55;18.20;62.10
79469;DHT22;68936;52.526;13.326;2023-04-01T08:00:27;18.30;67.10
79469;DHT22;68936;52.526;13.326;2023-04-01T08:05:41;18.40;65.80
79469;DHT22;68936;52.526;13.326;2023-04-01T08:08:23;18.40;67.00
79469;DHT22;68936;52.526;13.326;2023-04-01T08:13:53;18.40;67.40
79469;DHT22;68936;52.526;13.326;2023-04-01T08:21:52;18.50;68.50
79469;DHT22;68936;52.526;13.326;2023-04-01T08:27:09;18.50;67.10
79469;DHT22;68936;52.526;13.326;2023-04-01T08:32:35;18.50;68.40
79469;DHT22;68936;52.526;13.326;2023-04-01T08:37:59;18.50;67.00
79469;DHT22;68936;52.526;13.326;2023-04-01T08:43:16;18.50;67.70
79469;DHT22;68936;52.526;13.326;2023-04-01T08:52:09;18.50;68.80
79469;DHT22;68936;52.526;13.326;2023-04-01T09:11:40;18.60;69.00
79469;DHT22;68936;52.526;13.326;2023-04-01T09:17:26;18.60;68.50
79469;DHT22;68936;52.526;13.326;2023-04-01T09:25:44;18.60;69.30
79469;DHT22;68936;52.526;13.326;2023-04-01T09:28:24;18.60;68.70
79469;DHT22;68936;52.526;13.326;2023-04-01T09:39:03;18.60;66.40
79469;DHT22;68936;52.526;13.326;2023-04-01T09:42:15;18.60;66.70
79469;DHT22;68936;52.526;13.326;2023-04-01T09:44:52;18.60;66.20
79469;DHT22;68936;52.526;13.326;2023-04-01T09:47:51;18.60;65.00
79469;DHT22;68936;52.526;13.326;2023-04-01T09:50:43;18.60;66.50
79469;DHT22;68936;52.526;13.326;2023-04-01T09:56:32;18.60;66.60
79469;DHT22;68936;52.526;13.326;2023-04-01T10:04:35;18.60;66.90
79469;DHT22;68936;52.526;13.326;2023-04-01T10:43:50;18.60;64.20
79469;DHT22;68936;52.526;13.326;2023-04-01T11:06:30;18.60;65.50
79469;DHT22;68936;52.526;13.326;2023-04-01T11:19:34;18.60;65.40
79469;DHT22;68936;52.526;13.326;2023-04-01T11:41:33;18.60;64.50
79469;DHT22;68936;52.526;13.326;2023-04-01T11:44:20;18.60;65.00
79469;DHT22;68936;52.526;13.326;2023-04-01T11:50:31;18.60;64.20
79469;DHT22;68936;52.526;13.326;2023-04-01T11:53:15;18.60;65.10
79469;DHT22;68936;52.526;13.326;2023-04-01T12:20:59;18.60;63.10
79469;DHT22;68936;52.526;13.326;2023-04-01T12:29:49;18.60;66.00
79469;DHT22;68936;52.526;13.326;2023-04-01T12:35:25;18.60;64.90
79469;DHT22;68936;52.526;13.326;2023-04-01T12:40:44;18.50;62.50
79469;DHT22;68936;52.526;13.326;2023-04-01T13:09:00;18.50;64.80
79469;DHT22;68936;52.526;13.326;2023-04-01T13:15:04;18.40;64.30
79469;DHT22;68936;52.526;13.326;2023-04-01T13:20:43;18.50;62.10
79469;DHT22;68936;52.526;13.326;2023-04-01T13:29:20;18.40;63.60
79469;DHT22;68936;52.526;13.326;2023-04-01T13:42:37;18.40;64.60
79469;DHT22;68936;52.526;13.326;2023-04-01T13:45:16;18.40;64.10
79469;DHT22;68936;52.526;13.326;2023-04-01T13:56:16;18.40;65.40
79469;DHT22;68936;52.526;13.326;2023-04-01T14:08:06;18.40;62.70
79469;DHT22;68936;52.526;13.326;2023-04-01T14:50:54;18.20;63.30
79469;DHT22;68936;52.526;13.326;2023-04-01T14:53:33;18.20;63.80
79469;DHT22;68936;52.526;13.326;2023-04-01T14:56:02;18.20;62.10
79469;DHT22;68936;52.526;13.326;2023-04-01T15:09:52;18.10;63.00
79469;DHT22;68936;52.526;13.326;2023-04-01T15:12:30;18.10;62.30
79469;DHT22;68936;52.526;13.326;2023-04-01T15:21:26;18.10;64.30
79469;DHT22;68936;52.526;13.326;2023-04-01T15:38:08;18.00;61.00
79469;DHT22;68936;52.526;13.326;2023-04-01T15:43:49;18.00;61.00
79469;DHT22;68936;52.526;13.326;2023-04-01T15:49:20;18.00;64.40
79469;DHT22;68936;52.526;13.326;2023-04-01T16:00:12;17.90;63.40
79469;DHT22;68936;52.526;13.326;2023-04-01T16:24:43;17.90;67.40
